Time;durP1;ratioP1;P1;durP2;ratioP2;P2;SDS_P1;SDS_P2;PMS_P1;PMS_P2;Temp;Humidity;BMP_temperature;BMP_pressure;BME280_temperature;BME280_humidity;BME280_pressure;Samples;Min_cycle;Max_cycle;Signal;HPM_P1;HPM_P2
2021/10/15 00:00:58;;;;;;;0.20;0.20;;;;;;;10.98;100.00;100660.13;5072212;28;20052;-79
2021/10/15 00:03:31;;;;;;;0.20;0.20;;;;;;;11.02;100.00;100654.91;5072856;28;20052;-81
2021/10/15 00:06:06;;;;;;;0.20;0.20;;;;;;;11.02;100.00;100649.44;5071943;28;20056;-79
2021/10/15 00:08:34;;;;;;;0.20;0.20;;;;;;;11.02;100.00;100649.44;5072973;28;20044;-79
2021/10/15 00:11:07;;;;;;;0.20;0.20;;;;;;;10.99;100.00;100656.31;5072112;28;20059;-81
2021/10/15 00:13:40;;;;;;;0.20;0.20;;;;;;;11.07;100.00;100654.88;5071466;28;20053;-78
2021/10/15 00:16:13;;;;;;;0.20;0.20;;;;;;;11.05;100.00;100644.25;5071889;28;20060;-79
2021/10/15 00:18:47;;;;;;;0.20;0.20;;;;;;;11.01;100.00;100642.41;5071998;28;20053;-80
2021/10/15 00:21:17;;;;;;;0.20;0.20;;;;;;;11.07;100.00;100643.97;5073152;28;20049;-80
2021/10/15 00:23:50;;;;;;;0.22;0.22;;;;;;;11.08;100.00;100637.44;5071602;28;20041;-79
2021/10/15 00:26:18;;;;;;;0.15;0.15;;;;;;;10.99;100.00;100622.78;5088634;28;20067;-80
2021/10/15 00:28:46;;;;;;;0.20;0.20;;;;;;;11.11;100.00;100628.69;5072783;28;20048;-80
2021/10/15 00:31:15;;;;;;;0.20;0.20;;;;;;;11.06;100.00;100628.72;5070995;28;20057;-80
2021/10/15 00:33:43;;;;;;;0.20;0.20;;;;;;;11.02;100.00;100624.94;5071319;28;20056;-79
2021/10/15 00:36:24;;;;;;;0.20;0.20;;;;;;;10.93;100.00;100602.97;5069878;28;20052;-78
2021/10/15 00:38:52;;;;;;;0.20;0.20;;;;;;;10.92;100.00;100619.59;5060819;28;20052;-79
2021/10/15 00:41:25;;;;;;;0.20;0.20;;;;;;;10.92;100.00;100608.69;5069929;28;20048;-79
2021/10/15 00:43:59;;;;;;;0.20;0.20;;;;;;;10.95;100.00;100605.41;5070798;28;20052;-79
2021/10/15 00:46:40;;;;;;;0.20;0.20;;;;;;;10.93;100.00;100594.78;5070438;28;20048;-79
2021/10/15 00:49:10;;;;;;;0.20;0.20;;;;;;;11.00;100.00;100605.38;5079465;28;20056;-79
2021/10/15 00:51:46;;;;;;;0.20;0.20;;;;;;;10.96;100.00;100594.22;5066402;28;20045;-79
2021/10/15 00:54:16;;;;;;;0.20;0.20;;;;;;;10.97;100.00;100595.06;5088608;28;20052;-79
2021/10/15 00:56:54;;;;;;;0.20;0.20;;;;;;;11.04;100.00;100595.53;5086522;28;20063;-79
2021/10/15 00:59:23;;;;;;;0.22;0.22;;;;;;;11.10;100.00;100582.69;5071114;28;20055;-78
2021/10/15 01:01:56;;;;;;;0.20;0.20;;;;;;;11.04;100.00;100581.91;5081899;28;20069;-79
2021/10/15 01:04:25;;;;;;;0.20;0.20;;;;;;;10.99;100.00;100576.50;5062396;28;20514;-80
2021/10/15 01:06:55;;;;;;;0.20;0.20;;;;;;;11.12;100.00;100585.94;5068685;28;20056;-79
2021/10/15 01:09:28;;;;;;;0.20;0.20;;;;;;;11.00;100.00;100576.22;5074404;28;20048;-78
2021/10/15 01:12:04;;;;;;;0.30;0.30;;;;;;;10.97;100.00;100562.38;5091551;28;20055;-79
2021/10/15 01:14:37;;;;;;;0.20;0.20;;;;;;;11.03;100.00;100561.22;5070145;28;20045;-81
2021/10/15 01:17:10;;;;;;;0.20;0.20;;;;;;;11.02;100.00;100554.13;5071564;28;20044;-78
2021/10/15 01:19:44;;;;;;;0.20;0.20;;;;;;;10.99;100.00;100552.81;5072679;28;20676;-79
2021/10/15 01:22:18;;;;;;;0.20;0.20;;;;;;;11.06;100.00;100553.31;5070082;28;20059;-79
2021/10/15 01:24:47;;;;;;;0.20;0.20;;;;;;;11.14;100.00;100538.22;5064166;28;20052;-79
2021/10/15 01:27:20;;;;;;;0.20;0.20;;;;;;;11.02;100.00;100538.63;5070367;28;20053;-80
2021/10/15 01:29:53;;;;;;;0.20;0.20;;;;;;;11.01;100.00;100528.03;5077864;28;20053;-79
2021/10/15 01:32:28;;;;;;;0.20;0.20;;;;;;;11.01;100.00;100525.31;5065831;28;20051;-79
2021/10/15 01:35:02;;;;;;;0.20;0.20;;;;;;;10.97;100.00;100530.50;5070912;28;20048;-80
2021/10/15 01:37:31;;;;;;;0.20;0.20;;;;;;;11.04;100.00;100533.69;5102687;28;20044;-79
2021/10/15 01:40:06;;;;;;;0.20;0.20;;;;;;;11.03;100.00;100523.09;5084721;28;20051;-79
2021/10/15 01:42:54;;;;;;;0.20;0.20;;;;;;;11.05;100.00;100502.66;5071391;28;20400;-80
2021/10/15 01:45:30;;;;;;;0.20;0.20;;;;;;;11.08;100.00;100508.63;5069585;28;20044;-78
2021/10/15 01:48:04;;;;;;;0.25;0.25;;;;;;;11.08;100.00;100516.81;5068087;28;20056;-80
2021/10/15 01:51:06;;;;;;;0.30;0.30;;;;;;;11.05;100.00;100510.81;5069703;28;21021;-79
2021/10/15 01:53:36;;;;;;;0.20;0.20;;;;;;;11.08;100.00;100505.91;5080923;28;20063;-78
2021/10/15 01:56:10;;;;;;;0.20;0.20;;;;;;;11.01;100.00;100506.25;5071373;28;20040;-78
2021/10/15 01:58:44;;;;;;;0.20;0.20;;;;;;;11.00;100.00;100496.44;5071473;28;20041;-80
2021/10/15 02:01:17;;;;;;;0.20;0.20;;;;;;;10.99;100.00;100492.09;5068858;28;20052;-79
2021/10/15 02:03:53;;;;;;;0.20;0.20;;;;;;;11.01;100.00;100482.53;5084205;28;20048;-79
2021/10/15 02:06:27;;;;;;;0.20;0.20;;;;;;;11.02;100.00;100476.00;5063555;28;20111;-78
2021/10/15 02:09:03;;;;;;;0.20;0.20;;;;;;;10.99;100.00;100475.75;5067394;28;20044;-79
2021/10/15 02:11:36;;;;;;;0.20;0.20;;;;;;;11.03;100.00;100466.75;5099750;28;20052;-79
2021/10/15 02:14:10;;;;;;;0.30;0.30;;;;;;;10.99;100.00;100462.13;5070702;28;20048;-79
2021/10/15 02:16:38;;;;;;;0.20;0.20;;;;;;;10.91;100.00;100449.97;5073654;28;20044;-79
2021/10/15 02:19:11;;;;;;;0.20;0.20;;;;;;;10.96;100.00;100452.63;5073849;28;20044;-80
2021/10/15 02:21:45;;;;;;;0.20;0.20;;;;;;;10.98;100.00;100436.84;5074523;28;20047;-79
2021/10/15 02:24:20;;;;;;;0.10;0.10;;;;;;;10.98;100.00;100445.00;5074061;28;20512;-79
2021/10/15 02:26:53;;;;;;;0.20;0.20;;;;;;;10.98;100.00;100442.28;5073935;28;20055;-81
2021/10/15 02:29:22;;;;;;;0.20;0.20;;;;;;;10.97;100.00;100431.69;5092289;28;20063;-80
2021/10/15 02:31:55;;;;;;;0.20;0.20;;;;;;;10.98;100.00;100428.66;5071141;28;20523;-79
2021/10/15 02:34:28;;;;;;;0.20;0.20;;;;;;;10.95;100.00;100420.25;5073657;28;20044;-78
2021/10/15 02:37:01;;;;;;;0.20;0.20;;;;;;;10.99;100.00;100399.50;5071667;28;20408;-79
2021/10/15 02:39:31;;;;;;;0.20;0.20;;;;;;;10.96;100.00;100405.53;5069447;28;20053;-78
2021/10/15 02:42:04;;;;;;;0.20;0.20;;;;;;;10.87;100.00;100392.56;5054730;28;20049;-79
2021/10/15 02:44:34;;;;;;;0.20;0.20;;;;;;;10.91;100.00;100402.88;5072716;28;20044;-78
2021/10/15 02:47:07;;;;;;;0.20;0.20;;;;;;;10.88;100.00;100385.19;5068196;28;20067;-79
2021/10/15 02:49:42;;;;;;;0.20;0.20;;;;;;;10.98;100.00;100385.09;5071882;28;20045;-79
2021/10/15 02:52:15;;;;;;;0.20;0.20;;;;;;;10.93;100.00;100376.97;5104742;28;20052;-80
2021/10/15 02:54:45;;;;;;;0.20;0.20;;;;;;;10.85;100.00;100374.91;5076297;28;20067;-79
2021/10/15 02:57:18;;;;;;;0.20;0.20;;;;;;;10.84;100.00;100368.66;5070095;28;20060;-80
2021/10/15 02:59:51;;;;;;;0.20;0.20;;;;;;;10.94;100.00;100367.72;5071499;28;20048;-80
2021/10/15 03:02:25;;;;;;;0.20;0.20;;;;;;;10.91;100.00;100354.69;5070345;28;20052;-79
2021/10/15 03:04:53;;;;;;;0.20;0.20;;;;;;;10.89;100.00;100365.84;5088644;28;20053;-79
2021/10/15 03:07:26;;;;;;;0.20;0.20;;;;;;;10.92;100.00;100366.38;5073147;28;20047;-80
2021/10/15 03:09:55;;;;;;;0.22;0.22;;;;;;;11.00;100.00;100352.94;5086250;28;20064;-79
2021/10/15 03:12:29;;;;;;;0.20;0.20;;;;;;;10.97;100.00;100350.78;5069211;28;20127;-79
2021/10/15 03:14:57;;;;;;;0.20;0.20;;;;;;;10.95;100.00;100363.06;5073345;28;20045;-78
2021/10/15 03:17:25;;;;;;;0.20;0.20;;;;;;;10.87;100.00;100356.38;5067298;28;20474;-79
2021/10/15 03:19:53;;;;;;;0.20;0.20;;;;;;;10.99;100.00;100355.94;5088338;28;20063;-78
2021/10/15 03:22:26;;;;;;;0.20;0.20;;;;;;;10.99;100.00;100339.63;5069233;28;20059;-80
2021/10/15 03:25:01;;;;;;;0.20;0.20;;;;;;;10.90;100.00;100342.19;5072108;28;20056;-79
2021/10/15 03:27:29;;;;;;;0.20;0.20;;;;;;;10.95;100.00;100338.56;5067206;28;20420;-80
2021/10/15 03:30:02;;;;;;;0.20;0.20;;;;;;;10.97;100.00;100334.47;5067562;28;20411;-81
2021/10/15 03:32:30;;;;;;;0.20;0.20;;;;;;;10.98;100.00;100327.09;5071046;28;20052;-80
2021/10/15 03:34:58;;;;;;;0.20;0.20;;;;;;;11.01;100.00;100324.59;5066703;28;20048;-78
2021/10/15 03:37:32;;;;;;;0.20;0.20;;;;;;;10.95;100.00;100319.50;5072991;28;20052;-79
2021/10/15 03:40:01;;;;;;;0.20;0.20;;;;;;;10.96;100.00;100326.59;5070493;28;20052;-79
2021/10/15 03:42:35;;;;;;;0.20;0.20;;;;;;;10.98;100.00;100313.47;5087797;28;20052;-79
2021/10/15 03:45:10;;;;;;;0.20;0.20;;;;;;;10.92;100.00;100322.81;5068848;28;20047;-80
2021/10/15 03:47:44;;;;;;;0.20;0.20;;;;;;;10.99;100.00;100307.78;5066906;28;20400;-80
2021/10/15 03:50:13;;;;;;;0.20;0.20;;;;;;;11.12;100.00;100319.84;5072544;28;20048;-78
2021/10/15 03:52:46;;;;;;;0.20;0.20;;;;;;;10.95;100.00;100282.22;5070729;28;20060;-79
2021/10/15 03:55:15;;;;;;;0.20;0.20;;;;;;;11.01;100.00;100308.28;5060797;28;20409;-80
2021/10/15 03:57:48;;;;;;;0.30;0.30;;;;;;;10.99;100.00;100302.31;5072445;28;20059;-79
2021/10/15 04:00:22;;;;;;;0.20;0.20;;;;;;;11.06;100.00;100310.09;5069628;28;20416;-79
2021/10/15 04:02:52;;;;;;;0.20;0.20;;;;;;;11.05;100.00;100290.25;5071244;28;20064;-79
2021/10/15 04:05:26;;;;;;;0.20;0.20;;;;;;;11.09;100.00;100295.09;5066186;28;20473;-78
2021/10/15 04:07:59;;;;;;;0.20;0.20;;;;;;;11.07;100.00;100289.94;5078985;28;20665;-79
2021/10/15 04:10:34;;;;;;;0.20;0.20;;;;;;;11.08;100.00;100283.41;5084159;28;20045;-79
2021/10/15 04:13:07;;;;;;;0.20;0.20;;;;;;;11.06;100.00;100282.88;5069283;28;20053;-81
2021/10/15 04:15:40;;;;;;;0.20;0.20;;;;;;;10.93;100.00;100281.69;5071947;28;20075;-81
2021/10/15 04:18:08;;;;;;;0.20;0.20;;;;;;;10.85;100.00;100260.56;5069537;28;20044;-79
2021/10/15 04:20:37;;;;;;;0.20;0.20;;;;;;;11.08;100.00;100277.97;5086444;28;20045;-79
2021/10/15 04:23:05;;;;;;;0.20;0.20;;;;;;;11.05;100.00;100275.84;5067913;28;20060;-80
2021/10/15 04:25:34;;;;;;;0.20;0.20;;;;;;;10.93;100.00;100253.66;5083609;28;20044;-79
2021/10/15 04:28:07;;;;;;;0.30;0.30;;;;;;;11.00;100.00;100267.72;5077443;28;20050;-80
2021/10/15 04:30:36;;;;;;;0.20;0.20;;;;;;;10.90;100.00;100252.34;5086395;28;20048;-79
2021/10/15 04:33:09;;;;;;;0.20;0.20;;;;;;;10.97;100.00;100250.06;5070880;28;20052;-81
2021/10/15 04:35:42;;;;;;;0.20;0.20;;;;;;;10.98;100.00;100239.97;5070005;28;20052;-80
2021/10/15 04:38:21;;;;;;;0.20;0.20;;;;;;;10.97;100.00;100233.72;5067165;28;20049;-81
2021/10/15 04:40:56;;;;;;;0.20;0.20;;;;;;;10.89;100.00;100240.63;5071916;28;20052;-80
2021/10/15 04:43:28;;;;;;;0.13;0.13;;;;;;;11.01;100.00;100237.47;5103696;28;20514;-80
2021/10/15 04:46:01;;;;;;;0.20;0.20;;;;;;;10.98;100.00;100240.78;5071462;28;20044;-80
2021/10/15 04:48:29;;;;;;;0.20;0.20;;;;;;;11.01;100.00;100233.94;5067244;28;20055;-80
2021/10/15 04:50:57;;;;;;;0.20;0.20;;;;;;;10.95;100.00;100226.94;5069498;28;20059;-80
2021/10/15 04:53:26;;;;;;;0.20;0.20;;;;;;;10.87;100.00;100221.06;5065236;28;20048;-82
2021/10/15 04:56:00;;;;;;;0.20;0.20;;;;;;;10.86;100.00;100210.47;5067104;28;20060;-81
2021/10/15 04:58:33;;;;;;;0.20;0.20;;;;;;;10.93;100.00;100221.00;5067898;28;20041;-80
2021/10/15 05:01:06;;;;;;;0.17;0.17;;;;;;;10.97;100.00;100217.38;5068805;28;20055;-80
2021/10/15 05:04:41;;;;;;;0.20;0.20;;;;;;;10.88;100.00;100217.25;5070205;28;20531;-80
2021/10/15 05:07:14;;;;;;;0.17;0.17;;;;;;;10.96;100.00;100218.47;5069204;28;20044;-82
2021/10/15 05:09:43;;;;;;;0.20;0.20;;;;;;;10.94;100.00;100196.19;5084945;28;20044;-81
2021/10/15 05:12:17;;;;;;;0.20;0.20;;;;;;;10.96;100.00;100204.88;5085980;28;20040;-80
2021/10/15 05:14:51;;;;;;;0.17;0.17;;;;;;;10.92;100.00;100206.56;5069573;28;20059;-82
2021/10/15 05:17:24;;;;;;;0.17;0.17;;;;;;;10.88;100.00;100205.53;5069903;28;20040;-81
2021/10/15 05:20:00;;;;;;;0.20;0.20;;;;;;;10.85;100.00;100212.38;5068999;28;20052;-80
2021/10/15 05:22:29;;;;;;;0.20;0.20;;;;;;;10.92;100.00;100197.59;5067030;28;20044;-81
2021/10/15 05:25:02;;;;;;;0.20;0.20;;;;;;;10.85;100.00;100200.69;5071149;28;20040;-80
2021/10/15 05:27:37;;;;;;;0.20;0.20;;;;;;;10.94;100.00;100193.47;5069930;28;20045;-80
2021/10/15 05:30:09;;;;;;;0.20;0.20;;;;;;;10.87;100.00;100191.13;5069911;28;20496;-80
2021/10/15 05:32:38;;;;;;;0.30;0.30;;;;;;;10.89;100.00;100171.75;5069408;28;20041;-80
2021/10/15 05:35:07;;;;;;;0.10;0.10;;;;;;;10.93;100.00;100177.44;5071218;28;20067;-79
2021/10/15 05:37:35;;;;;;;0.20;0.20;;;;;;;10.92;100.00;100181.25;5069817;28;20060;-80
2021/10/15 05:40:10;;;;;;;0.20;0.20;;;;;;;10.99;100.00;100177.06;5070653;28;20051;-81
2021/10/15 05:42:49;;;;;;;0.20;0.20;;;;;;;10.97;100.00;100181.19;5071240;28;20037;-82
2021/10/15 05:45:25;;;;;;;0.20;0.20;;;;;;;10.91;100.00;100169.56;5067110;28;20403;-81
2021/10/15 05:47:58;;;;;;;0.20;0.20;;;;;;;10.92;100.00;100154.03;5071149;28;20037;-80
2021/10/15 05:50:32;;;;;;;0.20;0.20;;;;;;;10.83;100.00;100156.63;5067580;28;20051;-80
2021/10/15 05:53:05;;;;;;;0.20;0.20;;;;;;;10.81;100.00;100156.91;5084366;28;20048;-80
2021/10/15 05:55:45;;;;;;;0.20;0.20;;;;;;;10.82;100.00;100152.28;5072285;28;20052;-80
2021/10/15 06:01:06;;;;;;;0.20;0.20;;;;;;;10.72;100.00;100137.69;5072168;28;20142;-80
2021/10/15 06:03:34;;;;;;;0.20;0.20;;;;;;;10.59;100.00;100124.81;5107769;28;20048;-79
2021/10/15 06:14:51;;;;;;;0.30;0.30;;;;;;;10.79;100.00;100123.72;5074765;28;20041;-80
2021/10/15 06:17:26;;;;;;;0.20;0.20;;;;;;;10.91;100.00;100134.19;5105426;28;20048;-80
2021/10/15 06:19:59;;;;;;;0.20;0.20;;;;;;;10.86;100.00;100128.81;5079152;28;20045;-80
2021/10/15 06:22:34;;;;;;;0.10;0.10;;;;;;;10.79;100.00;100110.13;5073562;28;20044;-80
2021/10/15 06:25:08;;;;;;;0.20;0.20;;;;;;;10.83;100.00;100123.97;5072107;28;20067;-80
2021/10/15 06:27:42;;;;;;;0.20;0.20;;;;;;;10.79;100.00;100115.56;5072651;28;20040;-80
2021/10/15 06:30:16;;;;;;;0.25;0.25;;;;;;;10.83;100.00;100115.78;5074479;28;20044;-80
2021/10/15 06:32:49;;;;;;;0.20;0.20;;;;;;;10.80;100.00;100108.19;5074443;28;20056;-81
2021/10/15 06:35:23;;;;;;;0.20;0.20;;;;;;;10.71;100.00;100121.66;5070271;28;20511;-81
2021/10/15 06:37:56;;;;;;;0.20;0.20;;;;;;;10.65;100.00;100092.91;5075228;28;20043;-81
2021/10/15 06:40:25;;;;;;;0.20;0.20;;;;;;;10.65;100.00;100125.56;5083690;28;20389;-81
2021/10/15 06:42:58;;;;;;;0.20;0.20;;;;;;;10.69;100.00;100118.44;5086410;28;20048;-81
2021/10/15 06:45:34;;;;;;;0.20;0.20;;;;;;;10.68;100.00;100112.16;5073747;28;20055;-80
2021/10/15 06:48:02;;;;;;;0.20;0.20;;;;;;;10.69;100.00;100118.44;5073529;28;20044;-80
2021/10/15 06:50:35;;;;;;;0.22;0.17;;;;;;;10.65;100.00;100123.66;5068283;28;20048;-80
2021/10/15 06:53:09;;;;;;;0.20;0.20;;;;;;;10.54;100.00;100122.19;5071978;28;20385;-81
2021/10/15 06:55:42;;;;;;;0.20;0.20;;;;;;;10.47;100.00;100114.38;5070653;28;20060;-81
2021/10/15 06:58:17;;;;;;;0.20;0.20;;;;;;;10.46;100.00;100123.63;5072106;28;20044;-81
2021/10/15 07:00:51;;;;;;;0.20;0.20;;;;;;;10.45;100.00;100132.09;5068067;28;20053;-81
2021/10/15 07:03:24;;;;;;;0.20;0.20;;;;;;;10.43;100.00;100150.63;5056997;28;20056;-81
2021/10/15 07:05:58;;;;;;;0.20;0.20;;;;;;;10.46;100.00;100147.31;5065812;28;20440;-81
2021/10/15 07:08:31;;;;;;;0.10;0.10;;;;;;;10.46;100.00;100148.13;5047831;28;20056;-81
2021/10/15 07:11:01;;;;;;;0.10;0.10;;;;;;;10.42;100.00;100155.25;5067880;28;20067;-82
2021/10/15 07:13:35;;;;;;;0.20;0.20;;;;;;;10.33;100.00;100165.13;5057790;28;20044;-82
2021/10/15 07:16:10;;;;;;;0.20;0.20;;;;;;;10.36;100.00;100151.78;5051834;28;20049;-82
2021/10/15 07:18:43;;;;;;;0.20;0.20;;;;;;;10.35;100.00;100169.19;5065271;28;20057;-81
2021/10/15 07:21:16;;;;;;;0.20;0.20;;;;;;;10.30;100.00;100192.91;5051925;28;20058;-80
2021/10/15 07:23:52;;;;;;;0.20;0.20;;;;;;;10.19;100.00;100201.19;5044465;28;20071;-82
2021/10/15 07:26:21;;;;;;;0.20;0.20;;;;;;;10.19;100.00;100213.94;5045940;28;21445;-80
2021/10/15 07:28:50;;;;;;;0.20;0.20;;;;;;;10.11;100.00;100237.16;5051631;28;20063;-82
2021/10/15 07:31:25;;;;;;;0.30;0.30;;;;;;;9.94;100.00;100256.59;5046103;28;20059;-80
2021/10/15 07:34:02;;;;;;;0.10;0.10;;;;;;;9.81;100.00;100263.53;5047303;28;20056;-84
2021/10/15 07:36:37;;;;;;;0.13;0.13;;;;;;;9.59;100.00;100271.31;5068733;28;20059;-82
2021/10/15 07:39:12;;;;;;;0.20;0.20;;;;;;;9.17;100.00;100295.22;5075666;28;20833;-80
2021/10/15 07:41:45;;;;;;;0.20;0.20;;;;;;;9.05;100.00;100309.13;5045478;28;20056;-80
2021/10/15 07:44:20;;;;;;;0.10;0.10;;;;;;;9.04;100.00;100312.09;5064448;28;20061;-81
2021/10/15 07:46:55;;;;;;;0.20;0.20;;;;;;;8.82;100.00;100318.69;5053470;28;20048;-82
2021/10/15 07:49:28;;;;;;;0.20;0.20;;;;;;;8.74;100.00;100332.84;5078658;28;20048;-82
2021/10/15 07:51:57;;;;;;;0.20;0.20;;;;;;;8.61;100.00;100339.66;5067467;28;20044;-80
2021/10/15 07:54:33;;;;;;;0.20;0.20;;;;;;;8.62;100.00;100355.66;5056041;28;20044;-79
2021/10/15 07:57:08;;;;;;;0.20;0.20;;;;;;;8.62;100.00;100368.41;5052509;28;20044;-82
2021/10/15 07:59:42;;;;;;;0.20;0.20;;;;;;;8.61;100.00;100378.44;5050838;28;20413;-81
2021/10/15 08:02:16;;;;;;;0.20;0.20;;;;;;;8.59;100.00;100396.91;5050159;28;20052;-81
2021/10/15 08:04:50;;;;;;;0.20;0.20;;;;;;;8.54;100.00;100387.97;5066464;28;20064;-80
2021/10/15 08:07:29;;;;;;;0.20;0.20;;;;;;;8.50;100.00;100399.31;5086972;28;20060;-80
2021/10/15 08:10:04;;;;;;;0.20;0.20;;;;;;;8.55;100.00;100406.66;5045357;28;20036;-80
2021/10/15 08:12:38;;;;;;;0.20;0.20;;;;;;;8.55;100.00;100413.97;5047526;28;20052;-82
2021/10/15 08:15:14;;;;;;;0.20;0.20;;;;;;;8.54;100.00;100417.78;5046195;28;20048;-81
2021/10/15 08:18:14;;;;;;;0.10;0.10;;;;;;;8.57;100.00;100423.47;5067897;28;20056;-82
2021/10/15 08:20:47;;;;;;;0.20;0.20;;;;;;;8.54;100.00;100420.50;5051823;28;20071;-82
2021/10/15 08:23:21;;;;;;;0.20;0.20;;;;;;;8.48;100.00;100415.06;5068731;28;20068;-80
2021/10/15 08:25:49;;;;;;;0.20;0.20;;;;;;;8.51;100.00;100411.00;5051879;28;20435;-83
2021/10/15 08:28:17;;;;;;;0.20;0.20;;;;;;;8.51;100.00;100419.16;5067976;28;20057;-81
2021/10/15 08:30:51;;;;;;;0.20;0.20;;;;;;;8.39;100.00;100416.66;5065447;28;20045;-81
2021/10/15 08:33:25;;;;;;;0.20;0.20;;;;;;;8.51;100.00;100430.78;5049993;28;20053;-83
2021/10/15 08:35:55;;;;;;;0.20;0.20;;;;;;;8.50;100.00;100434.59;5045236;28;20064;-82
2021/10/15 08:38:23;;;;;;;0.20;0.20;;;;;;;8.57;100.00;100426.19;5047845;28;20063;-82
2021/10/15 08:40:56;;;;;;;0.20;0.20;;;;;;;8.52;100.00;100412.66;5052919;28;20052;-82
2021/10/15 08:43:35;;;;;;;0.20;0.20;;;;;;;8.56;100.00;100421.03;5050439;28;20585;-82
2021/10/15 08:46:03;;;;;;;0.10;0.10;;;;;;;8.64;100.00;100426.72;5046876;28;20044;-82
2021/10/15 08:48:37;;;;;;;0.20;0.20;;;;;;;8.58;100.00;100437.88;5044340;28;20064;-82
2021/10/15 08:51:10;;;;;;;0.20;0.20;;;;;;;8.58;100.00;100441.38;5045742;28;20040;-83
2021/10/15 08:53:46;;;;;;;0.20;0.20;;;;;;;8.55;100.00;100449.22;5042634;28;20048;-81
2021/10/15 08:56:17;;;;;;;0.20;0.20;;;;;;;8.58;100.00;100457.66;5059110;28;20053;-81
2021/10/15 08:58:58;;;;;;;0.20;0.20;;;;;;;8.52;100.00;100475.03;5041580;28;20052;-82
2021/10/15 09:01:40;;;;;;;0.20;0.20;;;;;;;8.51;100.00;100482.31;5039050;28;20943;-81
2021/10/15 09:04:18;;;;;;;0.13;0.13;;;;;;;8.43;100.00;100504.53;5043564;28;20056;-81
2021/10/15 09:06:52;;;;;;;0.20;0.20;;;;;;;8.43;100.00;100499.09;5046080;28;20060;-81
2021/10/15 09:09:29;;;;;;;0.20;0.20;;;;;;;8.37;100.00;100511.03;5047487;28;20055;-81
2021/10/15 09:12:09;;;;;;;0.17;0.17;;;;;;;8.48;100.00;100515.41;5042554;28;20052;-81
2021/10/15 09:14:44;;;;;;;0.20;0.20;;;;;;;8.46;100.00;100519.47;5045921;28;20048;-81
2021/10/15 09:17:25;;;;;;;0.20;0.20;;;;;;;8.49;100.00;100529.78;5042653;28;20055;-81
2021/10/15 09:20:03;;;;;;;0.20;0.20;;;;;;;8.49;100.00;100535.22;5057970;28;20056;-82
2021/10/15 09:22:32;;;;;;;0.20;0.20;;;;;;;8.57;100.00;100523.81;5040954;28;20067;-81
2021/10/15 09:25:11;;;;;;;0.20;0.20;;;;;;;8.39;100.00;100503.44;5042946;28;20049;-82
2021/10/15 09:27:45;;;;;;;0.20;0.20;;;;;;;8.47;100.00;100507.56;5046644;28;20056;-82
2021/10/15 09:30:22;;;;;;;0.20;0.20;;;;;;;8.50;100.00;100491.53;5060155;28;20606;-82
2021/10/15 09:32:57;;;;;;;0.20;0.20;;;;;;;8.37;100.00;100486.63;5053015;28;20055;-81
2021/10/15 09:35:33;;;;;;;0.20;0.20;;;;;;;8.44;100.00;100516.22;5044083;28;20823;-83
2021/10/15 09:38:10;;;;;;;0.20;0.20;;;;;;;8.47;100.00;100534.69;5062977;28;20500;-81
2021/10/15 09:40:47;;;;;;;0.20;0.20;;;;;;;8.46;100.00;100555.53;5045933;28;21722;-81
2021/10/15 09:43:20;;;;;;;;;;;;;;;8.45;100.00;100575.63;5050862;28;20052;-82
2021/10/15 09:45:54;;;;;;;0.20;0.20;;;;;;;8.46;100.00;100584.56;5047079;28;19928;-81
2021/10/15 09:48:25;;;;;;;0.20;0.20;;;;;;;8.54;100.00;100592.19;5046626;28;20056;-81
2021/10/15 09:51:13;;;;;;;0.13;0.13;;;;;;;8.53;100.00;100576.19;5049402;28;20048;-81
2021/10/15 09:54:10;;;;;;;0.20;0.20;;;;;;;8.53;100.00;100571.56;5067443;28;20059;-82
2021/10/15 09:56:47;;;;;;;0.20;0.20;;;;;;;8.57;100.00;100564.50;5045553;28;20048;-80
2021/10/15 09:59:15;;;;;;;0.20;0.20;;;;;;;8.65;100.00;100566.69;5047375;28;20495;-82
2021/10/15 10:01:49;;;;;;;0.20;0.20;;;;;;;8.73;100.00;100559.09;5061968;28;20060;-81
2021/10/15 10:04:23;;;;;;;0.30;0.30;;;;;;;8.77;100.00;100552.88;5055103;28;20048;-83
2021/10/15 10:06:57;;;;;;;0.20;0.20;;;;;;;8.74;100.00;100585.16;5063666;28;20063;-84
2021/10/15 10:09:29;;;;;;;0.20;0.20;;;;;;;8.79;100.00;100596.81;5050768;28;20053;-82
2021/10/15 10:12:03;;;;;;;0.20;0.20;;;;;;;8.85;100.00;100605.78;5050029;28;20047;-81
2021/10/15 10:14:36;;;;;;;0.20;0.20;;;;;;;9.00;100.00;100608.53;5051456;28;20701;-81
2021/10/15 10:17:12;;;;;;;0.20;0.20;;;;;;;8.99;100.00;100612.31;5051360;28;20067;-80
2021/10/15 10:19:50;;;;;;;0.20;0.20;;;;;;;9.01;100.00;100618.28;5069926;28;20053;-85
2021/10/15 10:22:29;;;;;;;0.20;0.20;;;;;;;9.00;100.00;100616.69;5066036;28;20048;-81
2021/10/15 10:25:07;;;;;;;0.30;0.30;;;;;;;9.02;100.00;100606.34;5048804;28;20063;-83
2021/10/15 10:27:43;;;;;;;0.20;0.20;;;;;;;8.84;100.00;100591.41;5047947;28;20044;-83
2021/10/15 10:30:16;;;;;;;0.17;0.17;;;;;;;9.01;100.00;100620.19;5056317;28;20045;-81
2021/10/15 10:33:04;;;;;;;0.20;0.20;;;;;;;8.98;100.00;100618.03;5052132;28;20925;-82
2021/10/15 10:35:39;;;;;;;0.20;0.20;;;;;;;8.99;100.00;100617.75;5049311;28;20057;-80
2021/10/15 10:38:32;;;;;;;0.20;0.20;;;;;;;8.97;100.00;100619.91;5049440;28;20610;-82
2021/10/15 10:41:18;;;;;;;0.20;0.20;;;;;;;8.94;100.00;100622.38;5071936;28;20048;-81
2021/10/15 10:44:10;;;;;;;0.20;0.20;;;;;;;8.92;100.00;100633.50;5049750;28;20065;-82
2021/10/15 10:46:43;;;;;;;;;;;;;;;8.94;100.00;100634.03;5068250;28;20182;-81
2021/10/15 10:49:20;;;;;;;0.20;0.20;;;;;;;9.08;100.00;100633.50;5071155;28;19928;-81
2021/10/15 10:52:12;;;;;;;0.30;0.30;;;;;;;9.11;100.00;100633.75;5051956;28;20053;-82
2021/10/15 10:54:48;;;;;;;0.20;0.20;;;;;;;9.19;100.00;100641.38;5054642;28;20055;-81
2021/10/15 10:57:27;;;;;;;0.20;0.20;;;;;;;9.23;100.00;100617.22;5057642;28;20493;-81
2021/10/15 11:00:23;;;;;;;0.20;0.20;;;;;;;9.30;100.00;100633.22;5053303;28;20502;-81
2021/10/15 11:02:57;;;;;;;0.22;0.22;;;;;;;9.50;100.00;100629.66;5050475;28;20056;-81
2021/10/15 11:05:33;;;;;;;0.20;0.20;;;;;;;9.56;100.00;100633.22;5047094;28;20057;-81
2021/10/15 11:08:30;;;;;;;0.20;0.20;;;;;;;9.54;100.00;100625.31;5072388;28;21087;-83
2021/10/15 11:11:41;;;;;;;0.20;0.20;;;;;;;9.64;100.00;100628.03;5060107;28;20065;-82
2021/10/15 11:14:22;;;;;;;0.20;0.20;;;;;;;9.73;100.00;100625.56;5055304;28;20055;-83
2021/10/15 11:17:09;;;;;;;0.22;0.22;;;;;;;9.66;100.00;100630.47;5050589;28;20045;-80
2021/10/15 11:19:42;;;;;;;0.20;0.20;;;;;;;9.74;100.00;100643.50;5046123;28;20645;-81
2021/10/15 11:22:20;;;;;;;0.20;0.20;;;;;;;9.71;100.00;100638.63;5047250;28;20056;-82
2021/10/15 11:24:56;;;;;;;0.30;0.30;;;;;;;9.75;100.00;100649.72;5049272;28;20052;-82
2021/10/15 11:27:29;;;;;;;0.20;0.20;;;;;;;9.83;100.00;100651.88;5047614;28;20064;-83
2021/10/15 11:30:08;;;;;;;0.20;0.20;;;;;;;10.03;100.00;100651.03;5065260;28;20788;-81
2021/10/15 11:32:44;;;;;;;0.30;0.30;;;;;;;10.11;100.00;100661.34;5056879;28;21314;-81
2021/10/15 11:35:19;;;;;;;0.20;0.20;;;;;;;10.14;100.00;100649.09;5053267;28;20059;-82
2021/10/15 11:38:00;;;;;;;0.20;0.20;;;;;;;10.38;100.00;100652.84;5051922;28;20056;-83
2021/10/15 11:40:36;;;;;;;0.20;0.20;;;;;;;10.53;100.00;100664.72;5047966;28;20067;-81
2021/10/15 11:43:16;;;;;;;0.20;0.20;;;;;;;10.56;100.00;100669.59;5046064;28;20759;-83
2021/10/15 11:45:47;;;;;;;0.30;0.30;;;;;;;10.46;100.00;100662.31;5047119;28;20420;-81
2021/10/15 11:48:26;;;;;;;0.20;0.20;;;;;;;10.35;100.00;100647.94;5063843;28;20056;-81
2021/10/15 11:51:01;;;;;;;0.20;0.20;;;;;;;10.32;100.00;100666.72;5047646;28;20052;-80
2021/10/15 11:53:37;;;;;;;0.20;0.20;;;;;;;10.26;100.00;100640.59;5048238;28;21213;-81
2021/10/15 11:56:12;;;;;;;0.20;0.20;;;;;;;10.45;100.00;100665.31;5052262;28;20063;-81
2021/10/15 11:58:47;;;;;;;0.30;0.30;;;;;;;10.67;100.00;100654.84;5050688;28;20056;-81
2021/10/15 12:01:19;;;;;;;0.20;0.20;;;;;;;10.87;100.00;100666.72;5069760;28;20052;-81
2021/10/15 12:03:56;;;;;;;;;;;;;;;10.81;100.00;100671.41;5053512;28;20706;-83